sensor_id;sensor_type;location;lat;lon;timestamp;P1;durP1;ratioP1;P2;durP2;ratioP2
71610;SDS011;59459;51.172;6.682;2022-12-05T00:00:04;29.20;;;12.60;;
71610;SDS011;59459;51.172;6.682;2022-12-05T00:02:30;33.25;;;12.15;;
71610;SDS011;59459;51.172;6.682;2022-12-05T00:04:55;30.33;;;12.10;;
71610;SDS011;59459;51.172;6.682;2022-12-05T00:07:20;30.50;;;12.37;;
71610;SDS011;59459;51.172;6.682;2022-12-05T00:09:45;30.93;;;12.40;;
71610;SDS011;59459;51.172;6.682;2022-12-05T00:12:11;33.30;;;13.37;;
71610;SDS011;59459;51.172;6.682;2022-12-05T00:14:36;33.90;;;12.63;;
71610;SDS011;59459;51.172;6.682;2022-12-05T00:17:01;30.33;;;12.80;;
71610;SDS011;59459;51.172;6.682;2022-12-05T00:19:27;33.20;;;13.57;;
71610;SDS011;59459;51.172;6.682;2022-12-05T00:21:52;37.90;;;13.80;;
71610;SDS011;59459;51.172;6.682;2022-12-05T00:24:17;28.10;;;12.50;;
71610;SDS011;59459;51.172;6.682;2022-12-05T00:26:43;35.10;;;14.32;;
71610;SDS011;59459;51.172;6.682;2022-12-05T00:29:09;34.23;;;13.27;;
71610;SDS011;59459;51.172;6.682;2022-12-05T00:31:34;36.50;;;14.13;;
71610;SDS011;59459;51.172;6.682;2022-12-05T00:34:00;32.07;;;13.37;;
71610;SDS011;59459;51.172;6.682;2022-12-05T00:36:26;33.67;;;13.15;;
71610;SDS011;59459;51.172;6.682;2022-12-05T00:38:52;37.58;;;14.38;;
71610;SDS011;59459;51.172;6.682;2022-12-05T00:41:18;36.37;;;13.07;;
71610;SDS011;59459;51.172;6.682;2022-12-05T00:43:44;32.95;;;13.57;;
71610;SDS011;59459;51.172;6.682;2022-12-05T00:46:11;31.73;;;13.07;;
71610;SDS011;59459;51.172;6.682;2022-12-05T00:48:37;31.98;;;13.38;;
71610;SDS011;59459;51.172;6.682;2022-12-05T00:51:03;36.97;;;14.33;;
71610;SDS011;59459;51.172;6.682;2022-12-05T00:53:28;37.08;;;14.07;;
71610;SDS011;59459;51.172;6.682;2022-12-05T00:55:54;36.30;;;14.13;;
71610;SDS011;59459;51.172;6.682;2022-12-05T00:58:19;38.43;;;14.63;;
71610;SDS011;59459;51.172;6.682;2022-12-05T01:00:44;34.70;;;13.30;;
71610;SDS011;59459;51.172;6.682;2022-12-05T01:03:09;31.67;;;14.07;;
71610;SDS011;59459;51.172;6.682;2022-12-05T01:05:35;34.63;;;14.03;;
71610;SDS011;59459;51.172;6.682;2022-12-05T01:08:00;36.87;;;14.17;;
71610;SDS011;59459;51.172;6.682;2022-12-05T01:10:25;35.40;;;13.30;;
71610;SDS011;59459;51.172;6.682;2022-12-05T01:12:50;36.58;;;14.77;;
71610;SDS011;59459;51.172;6.682;2022-12-05T01:15:16;34.30;;;13.93;;
71610;SDS011;59459;51.172;6.682;2022-12-05T01:17:41;34.10;;;13.13;;
71610;SDS011;59459;51.172;6.682;2022-12-05T01:20:06;36.70;;;14.57;;
71610;SDS011;59459;51.172;6.682;2022-12-05T01:22:32;36.17;;;14.47;;
71610;SDS011;59459;51.172;6.682;2022-12-05T01:24:57;34.47;;;12.97;;
71610;SDS011;59459;51.172;6.682;2022-12-05T01:27:22;39.97;;;13.13;;
71610;SDS011;59459;51.172;6.682;2022-12-05T01:29:48;41.37;;;14.13;;
71610;SDS011;59459;51.172;6.682;2022-12-05T01:32:13;34.40;;;12.83;;
71610;SDS011;59459;51.172;6.682;2022-12-05T01:34:38;36.20;;;14.10;;
71610;SDS011;59459;51.172;6.682;2022-12-05T01:37:03;33.30;;;12.73;;
71610;SDS011;59459;51.172;6.682;2022-12-05T01:39:29;37.07;;;14.07;;
71610;SDS011;59459;51.172;6.682;2022-12-05T01:41:54;35.87;;;14.33;;
71610;SDS011;59459;51.172;6.682;2022-12-05T01:46:48;38.63;;;14.30;;
71610;SDS011;59459;51.172;6.682;2022-12-05T01:49:24;35.10;;;13.50;;
71610;SDS011;59459;51.172;6.682;2022-12-05T01:51:54;30.17;;;13.23;;
71610;SDS011;59459;51.172;6.682;2022-12-05T01:54:21;31.50;;;12.82;;
71610;SDS011;59459;51.172;6.682;2022-12-05T01:56:47;33.55;;;13.98;;
71610;SDS011;59459;51.172;6.682;2022-12-05T01:59:14;31.80;;;13.70;;
71610;SDS011;59459;51.172;6.682;2022-12-05T02:01:40;35.30;;;13.73;;
71610;SDS011;59459;51.172;6.682;2022-12-05T02:04:05;33.57;;;13.53;;
71610;SDS011;59459;51.172;6.682;2022-12-05T02:06:31;37.33;;;14.30;;
71610;SDS011;59459;51.172;6.682;2022-12-05T02:08:56;28.97;;;12.80;;
71610;SDS011;59459;51.172;6.682;2022-12-05T02:11:22;32.87;;;12.33;;
71610;SDS011;59459;51.172;6.682;2022-12-05T02:13:51;34.47;;;14.07;;
71610;SDS011;59459;51.172;6.682;2022-12-05T02:23:54;34.22;;;13.07;;
71610;SDS011;59459;51.172;6.682;2022-12-05T02:29:25;32.22;;;13.75;;
71610;SDS011;59459;51.172;6.682;2022-12-05T02:32:09;33.95;;;12.90;;
71610;SDS011;59459;51.172;6.682;2022-12-05T02:44:34;35.95;;;13.73;;
71610;SDS011;59459;51.172;6.682;2022-12-05T02:47:02;30.98;;;13.07;;
71610;SDS011;59459;51.172;6.682;2022-12-05T02:49:29;32.33;;;14.07;;
71610;SDS011;59459;51.172;6.682;2022-12-05T02:51:56;30.05;;;12.63;;
71610;SDS011;59459;51.172;6.682;2022-12-05T02:54:26;34.60;;;13.32;;
71610;SDS011;59459;51.172;6.682;2022-12-05T02:56:52;38.25;;;13.95;;
71610;SDS011;59459;51.172;6.682;2022-12-05T02:59:18;32.30;;;13.88;;
71610;SDS011;59459;51.172;6.682;2022-12-05T03:01:44;30.43;;;12.80;;
71610;SDS011;59459;51.172;6.682;2022-12-05T03:04:10;30.07;;;12.47;;
71610;SDS011;59459;51.172;6.682;2022-12-05T03:06:40;31.30;;;12.57;;
71610;SDS011;59459;51.172;6.682;2022-12-05T03:09:08;34.53;;;13.45;;
71610;SDS011;59459;51.172;6.682;2022-12-05T03:11:40;33.05;;;14.43;;
71610;SDS011;59459;51.172;6.682;2022-12-05T03:14:07;33.75;;;14.15;;
71610;SDS011;59459;51.172;6.682;2022-12-05T03:16:36;30.17;;;12.93;;
71610;SDS011;59459;51.172;6.682;2022-12-05T03:19:13;31.00;;;13.68;;
71610;SDS011;59459;51.172;6.682;2022-12-05T03:21:51;28.58;;;12.77;;
71610;SDS011;59459;51.172;6.682;2022-12-05T03:24:18;28.73;;;12.80;;
71610;SDS011;59459;51.172;6.682;2022-12-05T03:26:53;29.63;;;13.07;;
71610;SDS011;59459;51.172;6.682;2022-12-05T03:34:15;32.20;;;13.30;;
71610;SDS011;59459;51.172;6.682;2022-12-05T03:36:43;32.65;;;14.45;;
71610;SDS011;59459;51.172;6.682;2022-12-05T03:39:10;36.07;;;13.53;;
71610;SDS011;59459;51.172;6.682;2022-12-05T03:41:39;37.50;;;14.40;;
71610;SDS011;59459;51.172;6.682;2022-12-05T03:44:12;35.67;;;14.30;;
71610;SDS011;59459;51.172;6.682;2022-12-05T03:46:40;31.10;;;12.57;;
71610;SDS011;59459;51.172;6.682;2022-12-05T03:49:12;30.70;;;13.20;;
71610;SDS011;59459;51.172;6.682;2022-12-05T03:51:45;31.90;;;13.50;;
71610;SDS011;59459;51.172;6.682;2022-12-05T03:54:19;34.30;;;14.02;;
71610;SDS011;59459;51.172;6.682;2022-12-05T03:57:07;32.30;;;13.43;;
71610;SDS011;59459;51.172;6.682;2022-12-05T04:01:59;29.20;;;13.60;;
71610;SDS011;59459;51.172;6.682;2022-12-05T04:04:30;38.78;;;15.73;;
71610;SDS011;59459;51.172;6.682;2022-12-05T04:06:57;36.88;;;15.18;;
71610;SDS011;59459;51.172;6.682;2022-12-05T04:09:27;42.03;;;15.70;;
71610;SDS011;59459;51.172;6.682;2022-12-05T04:11:55;33.28;;;14.40;;
71610;SDS011;59459;51.172;6.682;2022-12-05T04:14:25;38.10;;;14.85;;
71610;SDS011;59459;51.172;6.682;2022-12-05T04:17:02;36.90;;;15.43;;
71610;SDS011;59459;51.172;6.682;2022-12-05T04:22:14;35.33;;;14.57;;
71610;SDS011;59459;51.172;6.682;2022-12-05T04:24:39;41.40;;;15.35;;
71610;SDS011;59459;51.172;6.682;2022-12-05T04:30:08;31.73;;;13.55;;
71610;SDS011;59459;51.172;6.682;2022-12-05T04:35:24;34.55;;;15.05;;
71610;SDS011;59459;51.172;6.682;2022-12-05T04:37:52;36.22;;;15.02;;
71610;SDS011;59459;51.172;6.682;2022-12-05T04:40:25;36.83;;;14.77;;
71610;SDS011;59459;51.172;6.682;2022-12-05T04:42:52;35.30;;;14.50;;
71610;SDS011;59459;51.172;6.682;2022-12-05T04:45:19;40.67;;;15.95;;
71610;SDS011;59459;51.172;6.682;2022-12-05T04:47:47;40.95;;;15.68;;
71610;SDS011;59459;51.172;6.682;2022-12-05T04:50:13;35.40;;;15.50;;
71610;SDS011;59459;51.172;6.682;2022-12-05T04:52:39;36.13;;;14.03;;
71610;SDS011;59459;51.172;6.682;2022-12-05T04:55:10;35.45;;;14.77;;
71610;SDS011;59459;51.172;6.682;2022-12-05T05:00:20;35.33;;;14.40;;
71610;SDS011;59459;51.172;6.682;2022-12-05T05:02:47;41.53;;;16.30;;
71610;SDS011;59459;51.172;6.682;2022-12-05T05:05:15;36.45;;;13.93;;
71610;SDS011;59459;51.172;6.682;2022-12-05T05:07:49;33.15;;;14.13;;
71610;SDS011;59459;51.172;6.682;2022-12-05T05:10:15;28.80;;;12.50;;
71610;SDS011;59459;51.172;6.682;2022-12-05T05:12:43;37.28;;;14.73;;
71610;SDS011;59459;51.172;6.682;2022-12-05T05:15:08;37.40;;;14.77;;
71610;SDS011;59459;51.172;6.682;2022-12-05T05:17:33;32.40;;;14.13;;
71610;SDS011;59459;51.172;6.682;2022-12-05T05:19:59;31.70;;;14.73;;
71610;SDS011;59459;51.172;6.682;2022-12-05T05:22:42;34.72;;;15.57;;
71610;SDS011;59459;51.172;6.682;2022-12-05T05:25:07;31.50;;;14.43;;
71610;SDS011;59459;51.172;6.682;2022-12-05T05:27:33;39.37;;;15.80;;
71610;SDS011;59459;51.172;6.682;2022-12-05T05:29:58;40.03;;;14.97;;
71610;SDS011;59459;51.172;6.682;2022-12-05T05:32:23;33.40;;;13.53;;
71610;SDS011;59459;51.172;6.682;2022-12-05T05:34:48;32.20;;;14.33;;
71610;SDS011;59459;51.172;6.682;2022-12-05T05:37:14;35.00;;;14.63;;
71610;SDS011;59459;51.172;6.682;2022-12-05T05:39:39;36.57;;;15.50;;
71610;SDS011;59459;51.172;6.682;2022-12-05T05:42:04;38.60;;;15.03;;
71610;SDS011;59459;51.172;6.682;2022-12-05T05:44:29;33.27;;;13.73;;
71610;SDS011;59459;51.172;6.682;2022-12-05T05:46:54;33.27;;;13.53;;
71610;SDS011;59459;51.172;6.682;2022-12-05T05:49:20;32.07;;;13.80;;
71610;SDS011;59459;51.172;6.682;2022-12-05T05:51:45;36.23;;;13.83;;
71610;SDS011;59459;51.172;6.682;2022-12-05T05:54:10;27.73;;;13.03;;
71610;SDS011;59459;51.172;6.682;2022-12-05T05:56:35;26.67;;;13.37;;
71610;SDS011;59459;51.172;6.682;2022-12-05T05:59:01;32.13;;;12.67;;
71610;SDS011;59459;51.172;6.682;2022-12-05T06:01:27;31.73;;;12.17;;
71610;SDS011;59459;51.172;6.682;2022-12-05T06:03:52;33.00;;;14.15;;
71610;SDS011;59459;51.172;6.682;2022-12-05T06:06:18;33.20;;;14.30;;
71610;SDS011;59459;51.172;6.682;2022-12-05T06:08:43;32.15;;;13.35;;
71610;SDS011;59459;51.172;6.682;2022-12-05T06:11:10;31.00;;;13.60;;
71610;SDS011;59459;51.172;6.682;2022-12-05T06:13:35;32.53;;;13.85;;
71610;SDS011;59459;51.172;6.682;2022-12-05T06:16:01;29.17;;;12.73;;
71610;SDS011;59459;51.172;6.682;2022-12-05T06:18:30;34.25;;;13.30;;
71610;SDS011;59459;51.172;6.682;2022-12-05T06:20:56;34.03;;;14.15;;
71610;SDS011;59459;51.172;6.682;2022-12-05T06:23:22;37.97;;;14.85;;
71610;SDS011;59459;51.172;6.682;2022-12-05T06:25:48;34.37;;;13.93;;
71610;SDS011;59459;51.172;6.682;2022-12-05T06:28:13;32.60;;;14.55;;
71610;SDS011;59459;51.172;6.682;2022-12-05T06:30:38;33.30;;;13.60;;
71610;SDS011;59459;51.172;6.682;2022-12-05T06:33:04;31.27;;;14.80;;
71610;SDS011;59459;51.172;6.682;2022-12-05T06:35:29;36.37;;;13.20;;
71610;SDS011;59459;51.172;6.682;2022-12-05T06:37:54;34.10;;;14.33;;
71610;SDS011;59459;51.172;6.682;2022-12-05T06:40:20;30.00;;;13.60;;
71610;SDS011;59459;51.172;6.682;2022-12-05T06:42:45;28.07;;;13.03;;
71610;SDS011;59459;51.172;6.682;2022-12-05T06:45:10;34.33;;;13.15;;
71610;SDS011;59459;51.172;6.682;2022-12-05T06:47:35;32.07;;;13.73;;
71610;SDS011;59459;51.172;6.682;2022-12-05T06:50:01;33.90;;;14.57;;
71610;SDS011;59459;51.172;6.682;2022-12-05T06:52:26;32.27;;;14.13;;
71610;SDS011;59459;51.172;6.682;2022-12-05T06:54:51;30.87;;;13.30;;
71610;SDS011;59459;51.172;6.682;2022-12-05T06:57:17;35.90;;;15.17;;
71610;SDS011;59459;51.172;6.682;2022-12-05T06:59:42;30.73;;;13.00;;
71610;SDS011;59459;51.172;6.682;2022-12-05T07:02:08;33.63;;;13.73;;
71610;SDS011;59459;51.172;6.682;2022-12-05T07:04:33;34.70;;;14.98;;
71610;SDS011;59459;51.172;6.682;2022-12-05T07:06:58;32.03;;;14.40;;
71610;SDS011;59459;51.172;6.682;2022-12-05T07:09:26;37.28;;;15.77;;
71610;SDS011;59459;51.172;6.682;2022-12-05T07:12:10;36.20;;;15.35;;
71610;SDS011;59459;51.172;6.682;2022-12-05T07:14:35;32.87;;;13.07;;
71610;SDS011;59459;51.172;6.682;2022-12-05T07:17:01;33.37;;;13.43;;
71610;SDS011;59459;51.172;6.682;2022-12-05T07:19:26;34.90;;;14.30;;
71610;SDS011;59459;51.172;6.682;2022-12-05T07:21:51;34.33;;;13.83;;
71610;SDS011;59459;51.172;6.682;2022-12-05T07:24:16;31.80;;;13.70;;
71610;SDS011;59459;51.172;6.682;2022-12-05T07:26:41;33.40;;;13.97;;
71610;SDS011;59459;51.172;6.682;2022-12-05T07:29:07;28.83;;;14.07;;
71610;SDS011;59459;51.172;6.682;2022-12-05T07:31:32;34.50;;;14.17;;
71610;SDS011;59459;51.172;6.682;2022-12-05T07:33:58;31.02;;;13.95;;
71610;SDS011;59459;51.172;6.682;2022-12-05T07:36:23;36.13;;;13.83;;
71610;SDS011;59459;51.172;6.682;2022-12-05T07:38:53;33.50;;;14.87;;
71610;SDS011;59459;51.172;6.682;2022-12-05T07:41:19;38.25;;;16.13;;
71610;SDS011;59459;51.172;6.682;2022-12-05T07:43:45;30.58;;;14.13;;
71610;SDS011;59459;51.172;6.682;2022-12-05T07:46:11;32.23;;;14.90;;
71610;SDS011;59459;51.172;6.682;2022-12-05T07:48:36;35.03;;;16.33;;
71610;SDS011;59459;51.172;6.682;2022-12-05T07:51:02;33.43;;;15.93;;
71610;SDS011;59459;51.172;6.682;2022-12-05T07:53:28;31.25;;;13.63;;
71610;SDS011;59459;51.172;6.682;2022-12-05T07:55:54;27.00;;;13.57;;
71610;SDS011;59459;51.172;6.682;2022-12-05T07:58:19;34.13;;;14.80;;
71610;SDS011;59459;51.172;6.682;2022-12-05T08:00:44;29.13;;;13.60;;
71610;SDS011;59459;51.172;6.682;2022-12-05T08:03:09;34.40;;;13.57;;
71610;SDS011;59459;51.172;6.682;2022-12-05T08:05:34;34.47;;;14.83;;
71610;SDS011;59459;51.172;6.682;2022-12-05T08:08:00;34.57;;;15.57;;
71610;SDS011;59459;51.172;6.682;2022-12-05T08:10:25;33.57;;;14.53;;
71610;SDS011;59459;51.172;6.682;2022-12-05T08:12:50;31.30;;;14.33;;
71610;SDS011;59459;51.172;6.682;2022-12-05T08:15:15;36.27;;;14.50;;
71610;SDS011;59459;51.172;6.682;2022-12-05T08:17:41;35.30;;;14.27;;
71610;SDS011;59459;51.172;6.682;2022-12-05T08:20:06;32.90;;;13.47;;
71610;SDS011;59459;51.172;6.682;2022-12-05T08:22:31;28.83;;;13.73;;
71610;SDS011;59459;51.172;6.682;2022-12-05T08:24:57;38.60;;;14.47;;
71610;SDS011;59459;51.172;6.682;2022-12-05T08:27:22;32.50;;;14.87;;
71610;SDS011;59459;51.172;6.682;2022-12-05T08:29:47;34.97;;;13.80;;
71610;SDS011;59459;51.172;6.682;2022-12-05T08:32:13;35.23;;;14.83;;
71610;SDS011;59459;51.172;6.682;2022-12-05T08:34:38;34.73;;;14.83;;
71610;SDS011;59459;51.172;6.682;2022-12-05T08:37:03;33.87;;;14.13;;
71610;SDS011;59459;51.172;6.682;2022-12-05T08:39:29;34.13;;;14.80;;
71610;SDS011;59459;51.172;6.682;2022-12-05T08:41:56;31.50;;;14.07;;
71610;SDS011;59459;51.172;6.682;2022-12-05T08:44:22;36.23;;;14.27;;
71610;SDS011;59459;51.172;6.682;2022-12-05T08:46:48;30.70;;;13.57;;
71610;SDS011;59459;51.172;6.682;2022-12-05T08:49:13;34.15;;;14.05;;
71610;SDS011;59459;51.172;6.682;2022-12-05T08:51:39;34.20;;;15.83;;
71610;SDS011;59459;51.172;6.682;2022-12-05T08:54:05;37.20;;;14.83;;
71610;SDS011;59459;51.172;6.682;2022-12-05T08:56:31;32.38;;;13.30;;
71610;SDS011;59459;51.172;6.682;2022-12-05T08:58:57;29.43;;;13.40;;
71610;SDS011;59459;51.172;6.682;2022-12-05T09:01:22;31.97;;;14.67;;
71610;SDS011;59459;51.172;6.682;2022-12-05T09:03:49;38.30;;;14.77;;
71610;SDS011;59459;51.172;6.682;2022-12-05T09:06:18;35.75;;;15.05;;
71610;SDS011;59459;51.172;6.682;2022-12-05T09:08:44;36.50;;;14.57;;
71610;SDS011;59459;51.172;6.682;2022-12-05T09:11:13;33.43;;;14.30;;
71610;SDS011;59459;51.172;6.682;2022-12-05T09:13:39;35.78;;;14.65;;
71610;SDS011;59459;51.172;6.682;2022-12-05T09:16:08;35.70;;;14.50;;
71610;SDS011;59459;51.172;6.682;2022-12-05T09:18:34;31.67;;;13.73;;
71610;SDS011;59459;51.172;6.682;2022-12-05T09:21:06;31.70;;;14.10;;
71610;SDS011;59459;51.172;6.682;2022-12-05T09:23:32;34.70;;;14.93;;
71610;SDS011;59459;51.172;6.682;2022-12-05T09:25:57;35.20;;;15.15;;
71610;SDS011;59459;51.172;6.682;2022-12-05T09:28:29;30.77;;;13.77;;
71610;SDS011;59459;51.172;6.682;2022-12-05T09:30:57;33.13;;;14.40;;
71610;SDS011;59459;51.172;6.682;2022-12-05T09:33:23;37.15;;;15.05;;
71610;SDS011;59459;51.172;6.682;2022-12-05T09:35:48;30.77;;;13.13;;
71610;SDS011;59459;51.172;6.682;2022-12-05T09:38:14;35.67;;;15.07;;
71610;SDS011;59459;51.172;6.682;2022-12-05T09:40:39;35.17;;;15.47;;
71610;SDS011;59459;51.172;6.682;2022-12-05T09:43:06;30.70;;;13.77;;
71610;SDS011;59459;51.172;6.682;2022-12-05T09:45:35;31.38;;;13.77;;
71610;SDS011;59459;51.172;6.682;2022-12-05T09:48:11;29.52;;;13.43;;
71610;SDS011;59459;51.172;6.682;2022-12-05T09:50:43;32.13;;;14.80;;
71610;SDS011;59459;51.172;6.682;2022-12-05T09:53:15;29.58;;;13.85;;
71610;SDS011;59459;51.172;6.682;2022-12-05T09:58:19;34.53;;;14.00;;
71610;SDS011;59459;51.172;6.682;2022-12-05T10:00:45;31.00;;;13.30;;
71610;SDS011;59459;51.172;6.682;2022-12-05T10:13:04;32.40;;;14.38;;
71610;SDS011;59459;51.172;6.682;2022-12-05T10:15:35;32.75;;;14.15;;
71610;SDS011;59459;51.172;6.682;2022-12-05T10:18:09;32.50;;;14.18;;
71610;SDS011;59459;51.172;6.682;2022-12-05T10:20:40;30.00;;;13.65;;
71610;SDS011;59459;51.172;6.682;2022-12-05T10:23:10;28.37;;;12.50;;
71610;SDS011;59459;51.172;6.682;2022-12-05T10:25:38;32.42;;;13.20;;
71610;SDS011;59459;51.172;6.682;2022-12-05T10:28:12;29.35;;;12.68;;
71610;SDS011;59459;51.172;6.682;2022-12-05T10:30:39;28.60;;;12.85;;
71610;SDS011;59459;51.172;6.682;2022-12-05T10:33:17;31.63;;;13.47;;
71610;SDS011;59459;51.172;6.682;2022-12-05T10:35:45;30.42;;;12.68;;
71610;SDS011;59459;51.172;6.682;2022-12-05T10:38:12;27.90;;;13.33;;
71610;SDS011;59459;51.172;6.682;2022-12-05T10:40:42;23.70;;;11.05;;
71610;SDS011;59459;51.172;6.682;2022-12-05T10:43:09;26.20;;;12.15;;
71610;SDS011;59459;51.172;6.682;2022-12-05T10:45:38;28.20;;;12.57;;
71610;SDS011;59459;51.172;6.682;2022-12-05T10:48:07;24.27;;;12.13;;
71610;SDS011;59459;51.172;6.682;2022-12-05T10:50:35;24.43;;;10.97;;
71610;SDS011;59459;51.172;6.682;2022-12-05T10:53:02;30.30;;;12.60;;
71610;SDS011;59459;51.172;6.682;2022-12-05T10:55:39;25.98;;;11.57;;
71610;SDS011;59459;51.172;6.682;2022-12-05T10:58:10;24.35;;;11.32;;
71610;SDS011;59459;51.172;6.682;2022-12-05T11:00:36;23.58;;;11.45;;
71610;SDS011;59459;51.172;6.682;2022-12-05T11:03:14;24.63;;;11.87;;
71610;SDS011;59459;51.172;6.682;2022-12-05T11:05:46;24.30;;;10.80;;
71610;SDS011;59459;51.172;6.682;2022-12-05T11:08:20;24.25;;;11.55;;
71610;SDS011;59459;51.172;6.682;2022-12-05T11:10:45;21.30;;;10.13;;
71610;SDS011;59459;51.172;6.682;2022-12-05T11:13:14;20.30;;;10.07;;
71610;SDS011;59459;51.172;6.682;2022-12-05T11:15:43;19.45;;;9.95;;
71610;SDS011;59459;51.172;6.682;2022-12-05T11:18:26;21.27;;;10.05;;
71610;SDS011;59459;51.172;6.682;2022-12-05T11:20:53;22.33;;;10.40;;
71610;SDS011;59459;51.172;6.682;2022-12-05T11:25:47;20.65;;;9.63;;
71610;SDS011;59459;51.172;6.682;2022-12-05T11:30:42;22.17;;;9.63;;
71610;SDS011;59459;51.172;6.682;2022-12-05T11:33:20;17.60;;;8.27;;
71610;SDS011;59459;51.172;6.682;2022-12-05T11:35:46;16.83;;;8.95;;
71610;SDS011;59459;51.172;6.682;2022-12-05T11:38:12;18.67;;;9.15;;
71610;SDS011;59459;51.172;6.682;2022-12-05T11:40:42;20.20;;;9.40;;
71610;SDS011;59459;51.172;6.682;2022-12-05T12:04:12;17.40;;;9.38;;
71610;SDS011;59459;51.172;6.682;2022-12-05T12:14:42;18.13;;;8.57;;
71610;SDS011;59459;51.172;6.682;2022-12-05T12:22:46;20.23;;;8.57;;
71610;SDS011;59459;51.172;6.682;2022-12-05T12:33:10;19.80;;;9.10;;
71610;SDS011;59459;51.172;6.682;2022-12-05T12:35:50;16.60;;;8.63;;
71610;SDS011;59459;51.172;6.682;2022-12-05T12:40:52;21.95;;;10.43;;
71610;SDS011;59459;51.172;6.682;2022-12-05T12:48:44;20.42;;;10.15;;
71610;SDS011;59459;51.172;6.682;2022-12-05T12:51:15;19.10;;;8.98;;
71610;SDS011;59459;51.172;6.682;2022-12-05T12:56:37;19.63;;;9.40;;
71610;SDS011;59459;51.172;6.682;2022-12-05T13:04:06;20.17;;;9.43;;
71610;SDS011;59459;51.172;6.682;2022-12-05T13:09:13;18.83;;;10.00;;
71610;SDS011;59459;51.172;6.682;2022-12-05T13:11:42;18.73;;;10.32;;
71610;SDS011;59459;51.172;6.682;2022-12-05T13:14:13;19.30;;;9.55;;
71610;SDS011;59459;51.172;6.682;2022-12-05T13:16:41;21.03;;;9.00;;
71610;SDS011;59459;51.172;6.682;2022-12-05T13:19:06;16.95;;;9.05;;
71610;SDS011;59459;51.172;6.682;2022-12-05T13:21:38;20.98;;;10.45;;
71610;SDS011;59459;51.172;6.682;2022-12-05T13:24:04;16.83;;;9.23;;
71610;SDS011;59459;51.172;6.682;2022-12-05T13:26:30;18.50;;;9.68;;
71610;SDS011;59459;51.172;6.682;2022-12-05T13:28:57;19.90;;;9.63;;
71610;SDS011;59459;51.172;6.682;2022-12-05T13:31:39;19.00;;;8.93;;
71610;SDS011;59459;51.172;6.682;2022-12-05T13:34:05;20.20;;;10.57;;
71610;SDS011;59459;51.172;6.682;2022-12-05T13:36:37;19.23;;;9.43;;
71610;SDS011;59459;51.172;6.682;2022-12-05T13:39:22;19.63;;;10.18;;
71610;SDS011;59459;51.172;6.682;2022-12-05T13:42:17;18.05;;;9.40;;
71610;SDS011;59459;51.172;6.682;2022-12-05T13:47:30;20.65;;;9.43;;
71610;SDS011;59459;51.172;6.682;2022-12-05T13:52:31;19.65;;;9.52;;
71610;SDS011;59459;51.172;6.682;2022-12-05T13:55:10;19.20;;;9.98;;
71610;SDS011;59459;51.172;6.682;2022-12-05T14:07:42;18.52;;;9.23;;
71610;SDS011;59459;51.172;6.682;2022-12-05T14:10:09;19.20;;;10.25;;
71610;SDS011;59459;51.172;6.682;2022-12-05T14:20:41;19.15;;;9.13;;
71610;SDS011;59459;51.172;6.682;2022-12-05T14:25:48;19.13;;;9.63;;
71610;SDS011;59459;51.172;6.682;2022-12-05T14:30:50;20.27;;;10.93;;
71610;SDS011;59459;51.172;6.682;2022-12-05T14:33:16;19.58;;;9.77;;
71610;SDS011;59459;51.172;6.682;2022-12-05T14:35:48;20.70;;;10.63;;
71610;SDS011;59459;51.172;6.682;2022-12-05T14:38:28;22.13;;;10.32;;
71610;SDS011;59459;51.172;6.682;2022-12-05T14:40:54;19.73;;;10.23;;
71610;SDS011;59459;51.172;6.682;2022-12-05T14:43:24;19.73;;;9.85;;
71610;SDS011;59459;51.172;6.682;2022-12-05T14:50:44;21.23;;;10.37;;
71610;SDS011;59459;51.172;6.682;2022-12-05T14:55:55;24.27;;;10.68;;
71610;SDS011;59459;51.172;6.682;2022-12-05T15:00:53;20.85;;;10.60;;
71610;SDS011;59459;51.172;6.682;2022-12-05T15:03:30;21.20;;;11.20;;
71610;SDS011;59459;51.172;6.682;2022-12-05T15:05:56;22.48;;;11.40;;
71610;SDS011;59459;51.172;6.682;2022-12-05T15:08:22;21.27;;;10.77;;
71610;SDS011;59459;51.172;6.682;2022-12-05T15:10:47;22.37;;;11.73;;
71610;SDS011;59459;51.172;6.682;2022-12-05T15:13:21;25.58;;;13.40;;
71610;SDS011;59459;51.172;6.682;2022-12-05T15:18:48;24.08;;;11.68;;
71610;SDS011;59459;51.172;6.682;2022-12-05T15:21:20;20.73;;;11.38;;
71610;SDS011;59459;51.172;6.682;2022-12-05T15:23:47;21.10;;;11.32;;
71610;SDS011;59459;51.172;6.682;2022-12-05T15:28:38;19.70;;;10.50;;
71610;SDS011;59459;51.172;6.682;2022-12-05T15:31:03;23.13;;;11.67;;
71610;SDS011;59459;51.172;6.682;2022-12-05T15:33:30;20.88;;;11.68;;
71610;SDS011;59459;51.172;6.682;2022-12-05T15:35:57;18.67;;;10.07;;
71610;SDS011;59459;51.172;6.682;2022-12-05T15:38:27;22.63;;;11.27;;
71610;SDS011;59459;51.172;6.682;2022-12-05T15:40:53;20.60;;;11.02;;
71610;SDS011;59459;51.172;6.682;2022-12-05T15:43:28;19.90;;;10.10;;
71610;SDS011;59459;51.172;6.682;2022-12-05T15:46:07;25.33;;;11.45;;
71610;SDS011;59459;51.172;6.682;2022-12-05T15:48:32;21.25;;;11.45;;
71610;SDS011;59459;51.172;6.682;2022-12-05T15:50:58;23.87;;;12.20;;
71610;SDS011;59459;51.172;6.682;2022-12-05T15:53:30;23.98;;;12.50;;
71610;SDS011;59459;51.172;6.682;2022-12-05T15:58:26;22.57;;;12.97;;
71610;SDS011;59459;51.172;6.682;2022-12-05T16:00:55;28.52;;;13.77;;
71610;SDS011;59459;51.172;6.682;2022-12-05T16:03:40;27.10;;;13.00;;
71610;SDS011;59459;51.172;6.682;2022-12-05T16:06:31;25.75;;;13.23;;
71610;SDS011;59459;51.172;6.682;2022-12-05T16:08:54;26.27;;;13.68;;
71610;SDS011;59459;51.172;6.682;2022-12-05T16:11:20;26.47;;;12.60;;
71610;SDS011;59459;51.172;6.682;2022-12-05T16:13:50;28.38;;;13.13;;
71610;SDS011;59459;51.172;6.682;2022-12-05T16:16:19;25.53;;;12.70;;
71610;SDS011;59459;51.172;6.682;2022-12-05T16:18:51;26.13;;;13.80;;
71610;SDS011;59459;51.172;6.682;2022-12-05T16:21:33;27.25;;;14.15;;
71610;SDS011;59459;51.172;6.682;2022-12-05T16:24:25;26.05;;;13.90;;
71610;SDS011;59459;51.172;6.682;2022-12-05T16:27:02;25.15;;;13.13;;
71610;SDS011;59459;51.172;6.682;2022-12-05T16:29:31;22.57;;;12.20;;
71610;SDS011;59459;51.172;6.682;2022-12-05T16:31:58;23.08;;;13.10;;
71610;SDS011;59459;51.172;6.682;2022-12-05T16:34:26;21.67;;;12.70;;
71610;SDS011;59459;51.172;6.682;2022-12-05T16:37:03;22.98;;;12.27;;
71610;SDS011;59459;51.172;6.682;2022-12-05T16:39:51;26.65;;;13.23;;
71610;SDS011;59459;51.172;6.682;2022-12-05T16:42:31;25.10;;;13.00;;
71610;SDS011;59459;51.172;6.682;2022-12-05T16:45:01;24.95;;;12.60;;
71610;SDS011;59459;51.172;6.682;2022-12-05T16:56:58;25.27;;;13.03;;
71610;SDS011;59459;51.172;6.682;2022-12-05T17:02:34;23.05;;;12.80;;
71610;SDS011;59459;51.172;6.682;2022-12-05T17:05:04;23.48;;;13.65;;
71610;SDS011;59459;51.172;6.682;2022-12-05T17:07:51;27.45;;;15.00;;
71610;SDS011;59459;51.172;6.682;2022-12-05T17:10:22;26.13;;;14.93;;
71610;SDS011;59459;51.172;6.682;2022-12-05T17:12:56;23.85;;;13.50;;
71610;SDS011;59459;51.172;6.682;2022-12-05T17:15:26;26.70;;;14.38;;
71610;SDS011;59459;51.172;6.682;2022-12-05T17:17:59;22.77;;;12.02;;
71610;SDS011;59459;51.172;6.682;2022-12-05T17:20:35;25.70;;;13.73;;
71610;SDS011;59459;51.172;6.682;2022-12-05T17:23:02;28.10;;;14.37;;
71610;SDS011;59459;51.172;6.682;2022-12-05T17:25:31;21.93;;;12.27;;
71610;SDS011;59459;51.172;6.682;2022-12-05T17:28:05;23.45;;;12.60;;